Terminal Aerodrome Forecast
Issued by NWS Paducah, KY

Home | Current Version | Previous Version | Text Only | Print | Product List | Glossary On
Versions: 1 2 3 4 5 6 7 8 9 10 11 12 13 14
686
FTUS43 KPAH 311120
TAFPAH
TAF
KPAH 311120Z 3112/0112 00000KT P6SM SKC
      TEMPO 3112/3114 4SM BR
     FM311400 33007KT P6SM SCT035 SCT120
      TEMPO 3118/3122 BKN035
     FM312200 35010KT P6SM BKN040 BKN100
     FM010300 35005KT P6SM BKN040 BKN100=

USA.gov is the U.S. government's official web portal to all federal, state and local government web resources and services.